»·PEaware :: NKS511 KLAS-KSAN

NKS511 :: KLAS-KSAN

FLIGHT INFORMATION

Flight Status: Arrived
Operator:
Spirit Airlines
More flights by this operator :: More flights under this callsign
Pilot: Ben L. (6391)
Aircraft: AIRBUS A320
(A320)
More flights by this aircraft type
Origin: KLAS McCarran Intl
United States
Destination: KSAN San Diego Intl-Lindbergh
United States
More flights between these airports :: More routes between these airports
Route: BOACH8 LVELL LUCKI1
File this flight plan on PilotEdge
Remarks:
Altitude:
(Current/Filed)
28,000ft
Speed:
(Current/Filed)
480kts
Departed: 04-May-18 02:55 PM
Arrived: 04-May-18 03:38 PM
Distance/Time
Traveled:
225nm/0:43
Distance/Time
To Go:
Arrived

Flight Plot

Page will automatically refresh every two minutes.

Flight plan parsing failed; only flown route is shown


Map Options




Map Legend


Flown Route
Filed Route
Departure Airport
Arrival Airport
Navaid (VOR, NDB)
Fix

Horizontal Profiles

Position Reports

Time Latitude Longitude Heading Altitude Ground
Speed
04-May-18 13:56 36.082611 -115.153528 64 2191ft 0kts
04-May-18 13:57 36.082611 -115.153528 64 2191ft 0kts
04-May-18 13:58 36.082611 -115.153528 64 2191ft 0kts
04-May-18 13:59 36.082611 -115.153528 64 2191ft 0kts
04-May-18 14:00 36.082611 -115.153528 64 2191ft 0kts
04-May-18 14:01 36.082611 -115.153528 64 2191ft 0kts
04-May-18 14:02 36.082611 -115.153528 64 2191ft 0kts
04-May-18 14:03 36.082611 -115.153528 64 2191ft 0kts
04-May-18 14:04 36.082611 -115.153528 64 2191ft 0kts
04-May-18 14:05 36.082611 -115.153528 64 2191ft 0kts
04-May-18 14:06 36.082611 -115.153528 64 2191ft 0kts
04-May-18 14:07 36.082611 -115.153528 64 2191ft 0kts
04-May-18 14:08 36.082611 -115.153528 64 2191ft 0kts
04-May-18 14:09 36.082611 -115.153528 64 2191ft 0kts
04-May-18 14:10 36.082611 -115.153528 64 2191ft 0kts
04-May-18 14:11 36.082611 -115.153528 64 2191ft 0kts
04-May-18 14:18 36.082611 -115.153528 64 2191ft 0kts
04-May-18 14:19 36.082611 -115.153528 64 2191ft 0kts
04-May-18 14:20 36.082611 -115.153528 64 2191ft 0kts
04-May-18 14:21 36.082611 -115.153528 64 2191ft 0kts
04-May-18 14:22 36.082611 -115.153528 64 2191ft 0kts
04-May-18 14:23 36.082611 -115.153528 64 2191ft 0kts
04-May-18 14:24 36.082611 -115.153528 64 2191ft 0kts
04-May-18 14:25 36.082611 -115.153528 64 2191ft 0kts
04-May-18 14:26 36.082611 -115.153528 64 2191ft 0kts
04-May-18 14:27 36.082611 -115.153528 64 2191ft 0kts
04-May-18 14:28 36.082611 -115.153528 64 2191ft 0kts
04-May-18 14:29 36.082611 -115.153528 64 2191ft 0kts
04-May-18 14:30 36.082611 -115.153528 64 2191ft 0kts
04-May-18 14:31 36.082611 -115.153528 64 2191ft 0kts
04-May-18 14:32 36.082611 -115.153528 64 2191ft 0kts
04-May-18 14:33 36.082611 -115.153528 64 2191ft 0kts
04-May-18 14:34 36.082610 -115.153529 64 2191ft 0kts
04-May-18 14:35 36.082518 -115.153944 96 2191ft 2kts
04-May-18 14:36 36.082803 -115.154441 157 2191ft 1kts
04-May-18 14:37 36.082827 -115.154453 155 2191ft 0kts
04-May-18 14:38 36.082827 -115.154453 155 2191ft 0kts
04-May-18 14:39 36.082827 -115.154453 154 2191ft 0kts
04-May-18 14:40 36.082827 -115.154453 155 2191ft 0kts
04-May-18 14:41 36.082827 -115.154453 155 2191ft 0kts
04-May-18 14:42 36.082757 -115.154413 155 2191ft 0kts
04-May-18 14:43 36.082404 -115.154212 155 2191ft 9kts
04-May-18 14:44 36.081800 -115.153867 155 2191ft 0kts
04-May-18 14:45 36.081751 -115.153868 192 2191ft 2kts
04-May-18 14:46 36.080554 -115.154395 155 2191ft 11kts
04-May-18 14:47 36.078677 -115.149820 95 2191ft 23kts
04-May-18 14:48 36.078226 -115.141692 89 2191ft 23kts
04-May-18 14:49 36.078211 -115.133704 88 2191ft 23kts
04-May-18 14:50 36.078275 -115.125791 89 2191ft 22kts
04-May-18 14:51 36.077505 -115.121620 130 2191ft 0kts
04-May-18 14:52 36.077505 -115.121620 130 2191ft 0kts
04-May-18 14:53 36.077505 -115.121619 130 2191ft 0kts
04-May-18 14:54 36.076416 -115.123397 271 2191ft 22kts
04-May-18 14:54 36.076475 -115.157012 263 2811ft 165kts
04-May-18 14:55 36.072764 -115.227617 262 4645ft 238kts
04-May-18 14:56 36.032028 -115.295150 190 6714ft 285kts
04-May-18 14:57 35.954556 -115.308277 180 7202ft 283kts
04-May-18 14:58 35.876315 -115.314037 184 9923ft 298kts
04-May-18 14:59 35.788631 -115.307606 174 11641ft 352kts
04-May-18 15:00 35.686169 -115.295881 176 13398ft 383kts
04-May-18 15:01 35.577892 -115.298736 181 15436ft 396kts
04-May-18 15:02 35.466680 -115.303098 181 17272ft 409kts
04-May-18 15:03 35.351638 -115.307637 181 18905ft 421kts
04-May-18 15:04 35.233063 -115.312319 181 20404ft 432kts
04-May-18 15:05 35.111706 -115.317061 181 21778ft 443kts
04-May-18 15:06 34.988163 -115.321915 181 23027ft 453kts
04-May-18 15:07 34.866802 -115.326638 182 24120ft 462kts
04-May-18 15:08 34.743483 -115.347229 200 25221ft 468kts
04-May-18 15:09 34.621940 -115.400609 201 26337ft 474kts
04-May-18 15:10 34.497620 -115.454904 201 27376ft 480kts
04-May-18 15:11 34.372632 -115.509273 201 28313ft 478kts
04-May-18 15:12 34.320732 -115.534481 209 28323ft 476kts
04-May-18 15:13 34.208060 -115.614711 207 28322ft 477kts
04-May-18 15:14 34.093109 -115.670252 202 28319ft 477kts
04-May-18 15:15 33.977795 -115.724595 202 28315ft 477kts
04-May-18 15:16 33.867274 -115.777513 203 28289ft 477kts
04-May-18 15:17 33.759187 -115.830569 202 28163ft 478kts
04-May-18 15:18 33.640622 -115.885923 202 28075ft 479kts
04-May-18 15:19 33.521250 -115.947510 219 27736ft 452kts
04-May-18 15:20 33.449252 -116.057966 237 24899ft 411kts
04-May-18 15:21 33.385925 -116.166907 236 21591ft 393kts
04-May-18 15:22 33.317698 -116.261768 206 18399ft 378kts
04-May-18 15:23 33.225263 -116.315877 206 16774ft 370kts
04-May-18 15:24 33.134580 -116.368887 205 15015ft 358kts
04-May-18 15:25 33.047287 -116.419841 205 13388ft 346kts
04-May-18 15:26 32.970937 -116.479168 219 11897ft 336kts
04-May-18 15:27 32.900191 -116.550591 218 10347ft 327kts
04-May-18 15:28 32.835233 -116.615977 218 9769ft 312kts
04-May-18 15:29 32.774360 -116.678834 231 9124ft 308kts
04-May-18 15:30 32.732294 -116.765760 241 7013ft 298kts
04-May-18 15:31 32.698041 -116.848259 252 5222ft 267kts
04-May-18 15:32 32.673938 -116.929540 262 5011ft 248kts
04-May-18 15:33 32.688054 -117.001009 286 3743ft 216kts
04-May-18 15:34 32.703245 -117.065527 285 2294ft 197kts
04-May-18 15:35 32.716026 -117.119633 288 1427ft 139kts
04-May-18 15:36 32.726773 -117.161972 287 446ft 130kts
04-May-18 15:37 32.735289 -117.197061 273 26ft 12kts
04-May-18 15:38 32.734156 -117.196443 107 26ft 10kts
04-May-18 15:39 32.733004 -117.195425 232 26ft 0kts
04-May-18 15:40 32.733004 -117.195425 232 26ft 0kts
04-May-18 15:41 32.733004 -117.195425 232 26ft 0kts

Navigation Log

Ident Type
Flight plan parsing failed, navigation log unavailable